Barnsley, United Kingdom
Current Conditions -  °F | °C
As of 5:20 AM on Tuesday 21 Oct 2014 (Local Time) from EGCN Reporting Station
Scattered Clouds Scattered Clouds  
Wind Chill: 55°   Ceiling: Unl
Heat Index: 55°   Visibility: 6mi
Dew Point: 52°   Wind: 25mph
Humidity: 88%   Direction: 190°S
Pressure: 29.38"   Gusts: NA
Location:  53.55°N, 1.48°W
Report Text: EGCN 210420Z 19022KT 9999 FEW014 SCT026 13/11 Q0995
Loading
Personal Weather Stations






























Interactive Weather Map
Tropical Storm Tracking
New forecast layout! Learn more

10-Day Weather Forecast

Advertisements
Track Severe Weather on mobile